sensor_id;sensor_type;location;lat;lon;timestamp;P1;durP1;ratioP1;P2;durP2;ratioP2
13455;SDS011;6800;50.940;6.940;2024-01-07T00:01:45;40.23;;;26.67;;
13455;SDS011;6800;50.940;6.940;2024-01-07T00:05:49;38.83;;;26.40;;
13455;SDS011;6800;50.940;6.940;2024-01-07T00:09:50;35.90;;;24.43;;
13455;SDS011;6800;50.940;6.940;2024-01-07T00:13:52;39.20;;;26.73;;
13455;SDS011;6800;50.940;6.940;2024-01-07T00:17:53;42.13;;;28.77;;
13455;SDS011;6800;50.940;6.940;2024-01-07T00:21:55;45.40;;;29.63;;
13455;SDS011;6800;50.940;6.940;2024-01-07T00:25:57;37.17;;;24.63;;
13455;SDS011;6800;50.940;6.940;2024-01-07T00:29:58;32.63;;;22.90;;
13455;SDS011;6800;50.940;6.940;2024-01-07T00:34:00;27.47;;;20.97;;
13455;SDS011;6800;50.940;6.940;2024-01-07T00:38:02;28.83;;;21.93;;
13455;SDS011;6800;50.940;6.940;2024-01-07T00:42:03;28.10;;;20.80;;
13455;SDS011;6800;50.940;6.940;2024-01-07T00:46:08;26.80;;;20.27;;
13455;SDS011;6800;50.940;6.940;2024-01-07T00:50:10;27.60;;;19.03;;
13455;SDS011;6800;50.940;6.940;2024-01-07T00:54:12;26.60;;;20.17;;
13455;SDS011;6800;50.940;6.940;2024-01-07T00:58:13;25.80;;;20.30;;
13455;SDS011;6800;50.940;6.940;2024-01-07T01:02:18;26.00;;;19.27;;
13455;SDS011;6800;50.940;6.940;2024-01-07T01:06:19;24.30;;;18.27;;
13455;SDS011;6800;50.940;6.940;2024-01-07T01:10:21;23.87;;;17.97;;
13455;SDS011;6800;50.940;6.940;2024-01-07T01:14:23;23.43;;;18.33;;
13455;SDS011;6800;50.940;6.940;2024-01-07T01:18:24;21.70;;;16.80;;
13455;SDS011;6800;50.940;6.940;2024-01-07T01:22:27;22.70;;;16.57;;
13455;SDS011;6800;50.940;6.940;2024-01-07T01:26:30;23.10;;;17.47;;
13455;SDS011;6800;50.940;6.940;2024-01-07T01:30:31;18.83;;;15.87;;
13455;SDS011;6800;50.940;6.940;2024-01-07T01:34:33;21.90;;;16.20;;
13455;SDS011;6800;50.940;6.940;2024-01-07T01:38:35;23.83;;;17.57;;
13455;SDS011;6800;50.940;6.940;2024-01-07T01:42:37;17.97;;;14.70;;
13455;SDS011;6800;50.940;6.940;2024-01-07T01:46:38;23.60;;;18.63;;
13455;SDS011;6800;50.940;6.940;2024-01-07T01:50:40;19.37;;;16.37;;
13455;SDS011;6800;50.940;6.940;2024-01-07T01:54:42;20.53;;;16.73;;
13455;SDS011;6800;50.940;6.940;2024-01-07T01:58:44;22.90;;;16.90;;
13455;SDS011;6800;50.940;6.940;2024-01-07T02:02:47;20.20;;;15.73;;
13455;SDS011;6800;50.940;6.940;2024-01-07T02:06:50;17.97;;;15.33;;
13455;SDS011;6800;50.940;6.940;2024-01-07T02:10:51;18.03;;;14.80;;
13455;SDS011;6800;50.940;6.940;2024-01-07T02:14:56;17.97;;;15.10;;
13455;SDS011;6800;50.940;6.940;2024-01-07T02:18:58;17.67;;;14.27;;
13455;SDS011;6800;50.940;6.940;2024-01-07T02:23:00;17.67;;;15.23;;
13455;SDS011;6800;50.940;6.940;2024-01-07T02:27:04;20.47;;;17.50;;
13455;SDS011;6800;50.940;6.940;2024-01-07T02:31:08;18.37;;;16.23;;
13455;SDS011;6800;50.940;6.940;2024-01-07T02:35:10;17.03;;;15.23;;
13455;SDS011;6800;50.940;6.940;2024-01-07T02:39:12;19.37;;;15.80;;
13455;SDS011;6800;50.940;6.940;2024-01-07T02:43:14;17.57;;;15.00;;
13455;SDS011;6800;50.940;6.940;2024-01-07T02:47:15;21.50;;;16.77;;
13455;SDS011;6800;50.940;6.940;2024-01-07T02:51:17;20.57;;;16.23;;
13455;SDS011;6800;50.940;6.940;2024-01-07T02:55:18;19.73;;;15.90;;
13455;SDS011;6800;50.940;6.940;2024-01-07T02:59:26;20.57;;;16.83;;
13455;SDS011;6800;50.940;6.940;2024-01-07T03:03:27;19.87;;;15.83;;
13455;SDS011;6800;50.940;6.940;2024-01-07T03:07:32;18.23;;;15.57;;
13455;SDS011;6800;50.940;6.940;2024-01-07T03:11:34;21.87;;;18.43;;
13455;SDS011;6800;50.940;6.940;2024-01-07T03:15:40;24.07;;;18.27;;
13455;SDS011;6800;50.940;6.940;2024-01-07T03:19:43;20.83;;;17.77;;
13455;SDS011;6800;50.940;6.940;2024-01-07T03:23:45;22.57;;;18.53;;
13455;SDS011;6800;50.940;6.940;2024-01-07T03:27:47;24.00;;;19.80;;
13455;SDS011;6800;50.940;6.940;2024-01-07T03:31:49;23.57;;;19.97;;
13455;SDS011;6800;50.940;6.940;2024-01-07T03:35:52;28.23;;;21.17;;
13455;SDS011;6800;50.940;6.940;2024-01-07T03:39:53;27.10;;;22.03;;
13455;SDS011;6800;50.940;6.940;2024-01-07T03:43:55;23.47;;;18.47;;
13455;SDS011;6800;50.940;6.940;2024-01-07T03:47:58;27.73;;;21.87;;
13455;SDS011;6800;50.940;6.940;2024-01-07T03:51:59;31.00;;;22.77;;
13455;SDS011;6800;50.940;6.940;2024-01-07T03:56:01;30.80;;;23.03;;
13455;SDS011;6800;50.940;6.940;2024-01-07T04:00:05;34.03;;;24.17;;
13455;SDS011;6800;50.940;6.940;2024-01-07T04:04:07;29.87;;;23.10;;
13455;SDS011;6800;50.940;6.940;2024-01-07T04:08:09;34.50;;;24.63;;
13455;SDS011;6800;50.940;6.940;2024-01-07T04:12:11;30.13;;;22.67;;
13455;SDS011;6800;50.940;6.940;2024-01-07T04:16:16;30.73;;;23.60;;
13455;SDS011;6800;50.940;6.940;2024-01-07T04:20:19;30.63;;;24.90;;
13455;SDS011;6800;50.940;6.940;2024-01-07T04:24:21;31.70;;;23.07;;
13455;SDS011;6800;50.940;6.940;2024-01-07T04:28:23;28.53;;;22.17;;
13455;SDS011;6800;50.940;6.940;2024-01-07T04:32:28;31.27;;;23.10;;
13455;SDS011;6800;50.940;6.940;2024-01-07T04:36:30;28.30;;;22.33;;
13455;SDS011;6800;50.940;6.940;2024-01-07T04:40:32;28.67;;;23.00;;
13455;SDS011;6800;50.940;6.940;2024-01-07T04:44:33;29.27;;;22.57;;
13455;SDS011;6800;50.940;6.940;2024-01-07T04:48:35;33.53;;;23.87;;
13455;SDS011;6800;50.940;6.940;2024-01-07T04:52:36;28.40;;;22.43;;
13455;SDS011;6800;50.940;6.940;2024-01-07T04:56:39;31.97;;;23.13;;
13455;SDS011;6800;50.940;6.940;2024-01-07T05:00:40;28.27;;;22.23;;
13455;SDS011;6800;50.940;6.940;2024-01-07T05:04:42;30.07;;;22.57;;
13455;SDS011;6800;50.940;6.940;2024-01-07T05:08:44;29.13;;;22.67;;
13455;SDS011;6800;50.940;6.940;2024-01-07T05:12:51;30.20;;;23.60;;
13455;SDS011;6800;50.940;6.940;2024-01-07T05:16:53;29.00;;;23.53;;
13455;SDS011;6800;50.940;6.940;2024-01-07T05:20:56;30.73;;;24.13;;
13455;SDS011;6800;50.940;6.940;2024-01-07T05:24:57;31.07;;;23.10;;
13455;SDS011;6800;50.940;6.940;2024-01-07T05:29:01;30.30;;;23.03;;
13455;SDS011;6800;50.940;6.940;2024-01-07T05:33:02;28.33;;;21.23;;
13455;SDS011;6800;50.940;6.940;2024-01-07T05:37:04;30.03;;;23.37;;
13455;SDS011;6800;50.940;6.940;2024-01-07T05:41:06;29.37;;;23.23;;
13455;SDS011;6800;50.940;6.940;2024-01-07T05:45:09;30.83;;;23.97;;
13455;SDS011;6800;50.940;6.940;2024-01-07T05:49:13;30.93;;;23.57;;
13455;SDS011;6800;50.940;6.940;2024-01-07T05:53:15;28.83;;;23.60;;
13455;SDS011;6800;50.940;6.940;2024-01-07T05:57:17;25.53;;;21.17;;
13455;SDS011;6800;50.940;6.940;2024-01-07T06:01:21;27.47;;;22.90;;
13455;SDS011;6800;50.940;6.940;2024-01-07T06:05:23;27.37;;;22.20;;
13455;SDS011;6800;50.940;6.940;2024-01-07T06:09:25;25.53;;;21.40;;
13455;SDS011;6800;50.940;6.940;2024-01-07T06:13:27;26.57;;;21.73;;
13455;SDS011;6800;50.940;6.940;2024-01-07T06:17:29;27.33;;;22.80;;
13455;SDS011;6800;50.940;6.940;2024-01-07T06:21:30;27.83;;;22.77;;
13455;SDS011;6800;50.940;6.940;2024-01-07T06:25:32;27.87;;;22.93;;
13455;SDS011;6800;50.940;6.940;2024-01-07T06:29:35;25.93;;;22.20;;
13455;SDS011;6800;50.940;6.940;2024-01-07T06:33:36;27.60;;;22.50;;
13455;SDS011;6800;50.940;6.940;2024-01-07T06:37:38;25.73;;;21.30;;
13455;SDS011;6800;50.940;6.940;2024-01-07T06:41:41;27.03;;;22.50;;
13455;SDS011;6800;50.940;6.940;2024-01-07T06:45:44;27.63;;;22.80;;
13455;SDS011;6800;50.940;6.940;2024-01-07T06:49:45;27.30;;;20.83;;
13455;SDS011;6800;50.940;6.940;2024-01-07T06:53:47;25.20;;;18.47;;
13455;SDS011;6800;50.940;6.940;2024-01-07T06:57:50;26.07;;;20.67;;
13455;SDS011;6800;50.940;6.940;2024-01-07T07:01:51;26.43;;;21.53;;
13455;SDS011;6800;50.940;6.940;2024-01-07T07:05:56;25.03;;;20.13;;
13455;SDS011;6800;50.940;6.940;2024-01-07T07:09:58;24.53;;;20.47;;
13455;SDS011;6800;50.940;6.940;2024-01-07T07:14:01;22.00;;;18.43;;
13455;SDS011;6800;50.940;6.940;2024-01-07T07:18:03;22.57;;;18.63;;
13455;SDS011;6800;50.940;6.940;2024-01-07T07:22:05;21.53;;;18.70;;
13455;SDS011;6800;50.940;6.940;2024-01-07T07:26:09;21.20;;;17.73;;
13455;SDS011;6800;50.940;6.940;2024-01-07T07:30:10;21.03;;;18.53;;
13455;SDS011;6800;50.940;6.940;2024-01-07T07:34:14;19.80;;;17.10;;
13455;SDS011;6800;50.940;6.940;2024-01-07T07:38:16;19.60;;;17.60;;
13455;SDS011;6800;50.940;6.940;2024-01-07T07:42:19;19.93;;;17.83;;
13455;SDS011;6800;50.940;6.940;2024-01-07T07:46:22;21.97;;;17.37;;
13455;SDS011;6800;50.940;6.940;2024-01-07T07:50:24;17.20;;;14.80;;
13455;SDS011;6800;50.940;6.940;2024-01-07T07:54:29;19.63;;;17.40;;
13455;SDS011;6800;50.940;6.940;2024-01-07T07:58:36;20.27;;;17.53;;
13455;SDS011;6800;50.940;6.940;2024-01-07T08:02:39;21.43;;;18.00;;
13455;SDS011;6800;50.940;6.940;2024-01-07T08:06:42;16.23;;;12.87;;
13455;SDS011;6800;50.940;6.940;2024-01-07T08:10:48;19.13;;;17.10;;
13455;SDS011;6800;50.940;6.940;2024-01-07T08:14:51;17.30;;;14.07;;
13455;SDS011;6800;50.940;6.940;2024-01-07T08:18:53;21.17;;;17.80;;
13455;SDS011;6800;50.940;6.940;2024-01-07T08:23:01;19.40;;;16.67;;
13455;SDS011;6800;50.940;6.940;2024-01-07T08:27:02;20.67;;;17.23;;
13455;SDS011;6800;50.940;6.940;2024-01-07T08:31:05;20.57;;;17.50;;
13455;SDS011;6800;50.940;6.940;2024-01-07T08:35:09;20.43;;;18.13;;
13455;SDS011;6800;50.940;6.940;2024-01-07T08:39:15;22.10;;;17.27;;
13455;SDS011;6800;50.940;6.940;2024-01-07T08:43:17;22.70;;;18.80;;
13455;SDS011;6800;50.940;6.940;2024-01-07T08:47:20;22.23;;;18.83;;
13455;SDS011;6800;50.940;6.940;2024-01-07T08:51:23;22.47;;;18.53;;
13455;SDS011;6800;50.940;6.940;2024-01-07T08:55:28;25.33;;;19.27;;
13455;SDS011;6800;50.940;6.940;2024-01-07T08:59:30;22.57;;;19.23;;
13455;SDS011;6800;50.940;6.940;2024-01-07T09:03:32;24.87;;;20.27;;
13455;SDS011;6800;50.940;6.940;2024-01-07T09:07:34;24.93;;;19.63;;
13455;SDS011;6800;50.940;6.940;2024-01-07T09:11:36;23.57;;;19.03;;
13455;SDS011;6800;50.940;6.940;2024-01-07T09:15:38;23.27;;;17.70;;
13455;SDS011;6800;50.940;6.940;2024-01-07T09:19:40;23.00;;;17.90;;
13455;SDS011;6800;50.940;6.940;2024-01-07T09:23:43;23.30;;;19.97;;
13455;SDS011;6800;50.940;6.940;2024-01-07T09:27:45;22.83;;;18.60;;
13455;SDS011;6800;50.940;6.940;2024-01-07T09:31:47;24.30;;;19.87;;
13455;SDS011;6800;50.940;6.940;2024-01-07T09:35:49;19.50;;;15.37;;
13455;SDS011;6800;50.940;6.940;2024-01-07T09:40:02;19.33;;;17.00;;
13455;SDS011;6800;50.940;6.940;2024-01-07T09:44:09;16.47;;;14.70;;
13455;SDS011;6800;50.940;6.940;2024-01-07T09:48:11;19.90;;;16.23;;
13455;SDS011;6800;50.940;6.940;2024-01-07T09:52:14;17.73;;;15.33;;
13455;SDS011;6800;50.940;6.940;2024-01-07T09:56:23;16.27;;;14.67;;
13455;SDS011;6800;50.940;6.940;2024-01-07T10:00:30;14.60;;;13.10;;
13455;SDS011;6800;50.940;6.940;2024-01-07T10:04:33;14.70;;;13.23;;
13455;SDS011;6800;50.940;6.940;2024-01-07T10:08:35;15.50;;;13.90;;
13455;SDS011;6800;50.940;6.940;2024-01-07T10:12:37;14.90;;;13.40;;
13455;SDS011;6800;50.940;6.940;2024-01-07T10:16:39;11.97;;;10.77;;
13455;SDS011;6800;50.940;6.940;2024-01-07T10:20:41;15.00;;;13.60;;
13455;SDS011;6800;50.940;6.940;2024-01-07T10:24:44;18.23;;;16.33;;
13455;SDS011;6800;50.940;6.940;2024-01-07T10:28:48;15.90;;;14.50;;
13455;SDS011;6800;50.940;6.940;2024-01-07T10:32:50;12.63;;;11.37;;
13455;SDS011;6800;50.940;6.940;2024-01-07T10:37:01;13.40;;;12.10;;
13455;SDS011;6800;50.940;6.940;2024-01-07T10:41:04;14.17;;;12.87;;
13455;SDS011;6800;50.940;6.940;2024-01-07T10:45:10;11.40;;;10.30;;
13455;SDS011;6800;50.940;6.940;2024-01-07T10:49:19;14.17;;;12.67;;
13455;SDS011;6800;50.940;6.940;2024-01-07T10:53:22;17.03;;;15.33;;
13455;SDS011;6800;50.940;6.940;2024-01-07T10:57:34;15.73;;;13.83;;
13455;SDS011;6800;50.940;6.940;2024-01-07T11:01:42;15.83;;;14.17;;
13455;SDS011;6800;50.940;6.940;2024-01-07T11:05:47;16.70;;;14.00;;
13455;SDS011;6800;50.940;6.940;2024-01-07T11:14:38;15.43;;;13.70;;
13455;SDS011;6800;50.940;6.940;2024-01-07T11:18:45;20.53;;;18.33;;
13455;SDS011;6800;50.940;6.940;2024-01-07T11:22:48;18.47;;;16.43;;
13455;SDS011;6800;50.940;6.940;2024-01-07T11:26:50;11.23;;;10.13;;
13455;SDS011;6800;50.940;6.940;2024-01-07T11:30:54;15.53;;;13.87;;
13455;SDS011;6800;50.940;6.940;2024-01-07T11:34:57;16.90;;;15.10;;
13455;SDS011;6800;50.940;6.940;2024-01-07T11:39:01;20.37;;;18.27;;
13455;SDS011;6800;50.940;6.940;2024-01-07T11:43:03;17.13;;;15.33;;
13455;SDS011;6800;50.940;6.940;2024-01-07T11:47:08;19.90;;;16.77;;
13455;SDS011;6800;50.940;6.940;2024-01-07T11:51:10;16.93;;;14.43;;
13455;SDS011;6800;50.940;6.940;2024-01-07T11:55:14;19.00;;;17.00;;
13455;SDS011;6800;50.940;6.940;2024-01-07T11:59:17;18.90;;;15.93;;
13455;SDS011;6800;50.940;6.940;2024-01-07T12:03:19;12.60;;;10.27;;
13455;SDS011;6800;50.940;6.940;2024-01-07T12:07:21;16.27;;;13.37;;
13455;SDS011;6800;50.940;6.940;2024-01-07T12:11:22;15.43;;;13.10;;
13455;SDS011;6800;50.940;6.940;2024-01-07T12:15:25;14.30;;;11.27;;
13455;SDS011;6800;50.940;6.940;2024-01-07T12:19:29;15.87;;;14.17;;
13455;SDS011;6800;50.940;6.940;2024-01-07T12:23:35;16.80;;;15.20;;
13455;SDS011;6800;50.940;6.940;2024-01-07T12:27:44;14.53;;;12.93;;
13455;SDS011;6800;50.940;6.940;2024-01-07T12:31:51;13.87;;;12.53;;
13455;SDS011;6800;50.940;6.940;2024-01-07T12:35:54;15.77;;;14.03;;
13455;SDS011;6800;50.940;6.940;2024-01-07T12:39:56;16.83;;;14.90;;
13455;SDS011;6800;50.940;6.940;2024-01-07T12:43:58;13.80;;;12.43;;
13455;SDS011;6800;50.940;6.940;2024-01-07T12:48:00;13.73;;;12.13;;
13455;SDS011;6800;50.940;6.940;2024-01-07T12:52:04;13.23;;;10.27;;
13455;SDS011;6800;50.940;6.940;2024-01-07T12:56:06;14.20;;;12.80;;
13455;SDS011;6800;50.940;6.940;2024-01-07T13:00:08;14.53;;;11.77;;
13455;SDS011;6800;50.940;6.940;2024-01-07T13:04:10;13.23;;;11.23;;
13455;SDS011;6800;50.940;6.940;2024-01-07T13:08:12;14.70;;;11.40;;
13455;SDS011;6800;50.940;6.940;2024-01-07T13:12:17;13.50;;;12.10;;
13455;SDS011;6800;50.940;6.940;2024-01-07T13:16:18;12.20;;;11.00;;
13455;SDS011;6800;50.940;6.940;2024-01-07T13:20:22;12.60;;;11.37;;
13455;SDS011;6800;50.940;6.940;2024-01-07T13:24:27;12.13;;;10.87;;
13455;SDS011;6800;50.940;6.940;2024-01-07T13:28:31;9.40;;;8.50;;
13455;SDS011;6800;50.940;6.940;2024-01-07T13:32:34;8.73;;;7.90;;
13455;SDS011;6800;50.940;6.940;2024-01-07T13:36:38;10.80;;;9.67;;
13455;SDS011;6800;50.940;6.940;2024-01-07T13:40:40;11.30;;;10.13;;
13455;SDS011;6800;50.940;6.940;2024-01-07T13:44:42;9.67;;;8.73;;
13455;SDS011;6800;50.940;6.940;2024-01-07T13:48:48;10.43;;;9.53;;
13455;SDS011;6800;50.940;6.940;2024-01-07T13:52:50;9.17;;;8.07;;
13455;SDS011;6800;50.940;6.940;2024-01-07T13:56:52;8.90;;;8.10;;
13455;SDS011;6800;50.940;6.940;2024-01-07T14:00:55;9.67;;;8.70;;
13455;SDS011;6800;50.940;6.940;2024-01-07T14:04:57;11.03;;;9.93;;
13455;SDS011;6800;50.940;6.940;2024-01-07T14:09:05;11.93;;;10.80;;
13455;SDS011;6800;50.940;6.940;2024-01-07T14:13:19;9.57;;;8.87;;
13455;SDS011;6800;50.940;6.940;2024-01-07T14:17:21;16.17;;;14.97;;
13455;SDS011;6800;50.940;6.940;2024-01-07T14:21:23;15.20;;;14.10;;
13455;SDS011;6800;50.940;6.940;2024-01-07T14:25:26;13.37;;;12.33;;
13455;SDS011;6800;50.940;6.940;2024-01-07T14:29:30;11.90;;;11.07;;
13455;SDS011;6800;50.940;6.940;2024-01-07T14:33:35;12.83;;;11.53;;
13455;SDS011;6800;50.940;6.940;2024-01-07T14:37:39;12.93;;;12.03;;
13455;SDS011;6800;50.940;6.940;2024-01-07T14:41:43;13.80;;;12.80;;
13455;SDS011;6800;50.940;6.940;2024-01-07T14:45:45;11.37;;;10.67;;
13455;SDS011;6800;50.940;6.940;2024-01-07T14:49:46;13.20;;;12.20;;
13455;SDS011;6800;50.940;6.940;2024-01-07T14:53:49;13.13;;;12.13;;
13455;SDS011;6800;50.940;6.940;2024-01-07T14:57:50;9.90;;;9.30;;
13455;SDS011;6800;50.940;6.940;2024-01-07T15:01:52;9.60;;;9.13;;
13455;SDS011;6800;50.940;6.940;2024-01-07T15:05:58;8.97;;;8.27;;
13455;SDS011;6800;50.940;6.940;2024-01-07T15:10:00;6.27;;;5.77;;
13455;SDS011;6800;50.940;6.940;2024-01-07T15:14:03;7.00;;;6.20;;
13455;SDS011;6800;50.940;6.940;2024-01-07T15:18:09;8.10;;;7.40;;
13455;SDS011;6800;50.940;6.940;2024-01-07T15:22:11;6.17;;;5.70;;
13455;SDS011;6800;50.940;6.940;2024-01-07T15:26:14;7.87;;;7.17;;
13455;SDS011;6800;50.940;6.940;2024-01-07T15:30:16;8.70;;;7.20;;
13455;SDS011;6800;50.940;6.940;2024-01-07T15:34:18;7.27;;;6.53;;
13455;SDS011;6800;50.940;6.940;2024-01-07T15:38:20;7.13;;;6.53;;
13455;SDS011;6800;50.940;6.940;2024-01-07T15:42:22;7.67;;;6.87;;
13455;SDS011;6800;50.940;6.940;2024-01-07T15:46:24;7.17;;;6.00;;
13455;SDS011;6800;50.940;6.940;2024-01-07T15:50:28;5.87;;;5.43;;
13455;SDS011;6800;50.940;6.940;2024-01-07T15:54:30;6.73;;;6.07;;
13455;SDS011;6800;50.940;6.940;2024-01-07T15:58:37;7.10;;;6.40;;
13455;SDS011;6800;50.940;6.940;2024-01-07T16:02:39;7.00;;;6.30;;
13455;SDS011;6800;50.940;6.940;2024-01-07T16:06:43;6.30;;;5.70;;
13455;SDS011;6800;50.940;6.940;2024-01-07T16:10:46;7.90;;;7.07;;
13455;SDS011;6800;50.940;6.940;2024-01-07T16:14:47;7.40;;;6.27;;
13455;SDS011;6800;50.940;6.940;2024-01-07T16:18:49;6.27;;;5.77;;
13455;SDS011;6800;50.940;6.940;2024-01-07T16:22:51;5.73;;;5.27;;
13455;SDS011;6800;50.940;6.940;2024-01-07T16:26:53;6.77;;;6.17;;
13455;SDS011;6800;50.940;6.940;2024-01-07T16:30:56;7.10;;;6.40;;
13455;SDS011;6800;50.940;6.940;2024-01-07T16:34:58;7.00;;;6.47;;
13455;SDS011;6800;50.940;6.940;2024-01-07T16:39:00;6.10;;;5.60;;
13455;SDS011;6800;50.940;6.940;2024-01-07T16:43:03;5.60;;;5.20;;
13455;SDS011;6800;50.940;6.940;2024-01-07T16:47:05;5.43;;;5.13;;
13455;SDS011;6800;50.940;6.940;2024-01-07T16:51:08;5.53;;;5.20;;
13455;SDS011;6800;50.940;6.940;2024-01-07T16:55:15;7.30;;;6.70;;
13455;SDS011;6800;50.940;6.940;2024-01-07T16:59:18;6.70;;;6.10;;
13455;SDS011;6800;50.940;6.940;2024-01-07T17:03:22;6.37;;;5.70;;
13455;SDS011;6800;50.940;6.940;2024-01-07T17:07:24;6.77;;;6.13;;
13455;SDS011;6800;50.940;6.940;2024-01-07T17:11:31;7.20;;;6.50;;
13455;SDS011;6800;50.940;6.940;2024-01-07T17:15:33;6.97;;;6.37;;
13455;SDS011;6800;50.940;6.940;2024-01-07T17:19:35;5.90;;;5.50;;
13455;SDS011;6800;50.940;6.940;2024-01-07T17:23:37;5.90;;;5.50;;
13455;SDS011;6800;50.940;6.940;2024-01-07T17:27:39;5.60;;;5.20;;
13455;SDS011;6800;50.940;6.940;2024-01-07T17:31:41;7.40;;;5.63;;
13455;SDS011;6800;50.940;6.940;2024-01-07T17:35:44;8.43;;;6.50;;
13455;SDS011;6800;50.940;6.940;2024-01-07T17:39:46;6.57;;;6.07;;
13455;SDS011;6800;50.940;6.940;2024-01-07T17:43:50;7.43;;;6.83;;
13455;SDS011;6800;50.940;6.940;2024-01-07T17:47:54;7.67;;;6.87;;
13455;SDS011;6800;50.940;6.940;2024-01-07T17:51:56;7.30;;;6.63;;
13455;SDS011;6800;50.940;6.940;2024-01-07T17:55:58;6.50;;;6.00;;
13455;SDS011;6800;50.940;6.940;2024-01-07T18:00:00;7.00;;;6.43;;
13455;SDS011;6800;50.940;6.940;2024-01-07T18:04:03;6.77;;;6.17;;
13455;SDS011;6800;50.940;6.940;2024-01-07T18:08:06;7.23;;;6.63;;
13455;SDS011;6800;50.940;6.940;2024-01-07T18:12:09;6.83;;;6.33;;
13455;SDS011;6800;50.940;6.940;2024-01-07T18:16:11;6.47;;;5.87;;
13455;SDS011;6800;50.940;6.940;2024-01-07T18:20:14;7.73;;;6.93;;
13455;SDS011;6800;50.940;6.940;2024-01-07T18:24:16;6.43;;;5.93;;
13455;SDS011;6800;50.940;6.940;2024-01-07T18:28:18;7.67;;;6.23;;
13455;SDS011;6800;50.940;6.940;2024-01-07T18:32:20;5.80;;;5.40;;
13455;SDS011;6800;50.940;6.940;2024-01-07T18:36:23;6.77;;;5.73;;
13455;SDS011;6800;50.940;6.940;2024-01-07T18:40:24;6.80;;;6.20;;
13455;SDS011;6800;50.940;6.940;2024-01-07T18:44:26;4.20;;;3.90;;
13455;SDS011;6800;50.940;6.940;2024-01-07T18:48:31;4.60;;;4.30;;
13455;SDS011;6800;50.940;6.940;2024-01-07T18:52:32;6.43;;;5.87;;
13455;SDS011;6800;50.940;6.940;2024-01-07T18:56:35;5.30;;;4.90;;
13455;SDS011;6800;50.940;6.940;2024-01-07T19:00:37;5.67;;;4.83;;
13455;SDS011;6800;50.940;6.940;2024-01-07T19:04:39;4.93;;;4.60;;
13455;SDS011;6800;50.940;6.940;2024-01-07T19:08:41;6.00;;;5.40;;
13455;SDS011;6800;50.940;6.940;2024-01-07T19:12:43;5.10;;;4.70;;
13455;SDS011;6800;50.940;6.940;2024-01-07T19:16:44;5.27;;;4.77;;
13455;SDS011;6800;50.940;6.940;2024-01-07T19:20:47;4.97;;;4.57;;
13455;SDS011;6800;50.940;6.940;2024-01-07T19:24:49;5.40;;;5.00;;
13455;SDS011;6800;50.940;6.940;2024-01-07T19:28:51;5.73;;;5.23;;
13455;SDS011;6800;50.940;6.940;2024-01-07T19:32:53;5.53;;;5.03;;
13455;SDS011;6800;50.940;6.940;2024-01-07T19:36:56;5.20;;;4.80;;
13455;SDS011;6800;50.940;6.940;2024-01-07T19:41:00;5.47;;;5.07;;
13455;SDS011;6800;50.940;6.940;2024-01-07T19:45:02;5.83;;;5.37;;
13455;SDS011;6800;50.940;6.940;2024-01-07T19:49:05;7.03;;;6.23;;
13455;SDS011;6800;50.940;6.940;2024-01-07T19:53:07;5.13;;;4.73;;
13455;SDS011;6800;50.940;6.940;2024-01-07T19:57:19;6.13;;;5.63;;
13455;SDS011;6800;50.940;6.940;2024-01-07T20:01:22;6.60;;;5.93;;
13455;SDS011;6800;50.940;6.940;2024-01-07T20:05:25;6.07;;;5.57;;
13455;SDS011;6800;50.940;6.940;2024-01-07T20:09:32;6.03;;;5.63;;
13455;SDS011;6800;50.940;6.940;2024-01-07T20:13:35;6.07;;;5.57;;
13455;SDS011;6800;50.940;6.940;2024-01-07T20:17:36;5.73;;;5.23;;
13455;SDS011;6800;50.940;6.940;2024-01-07T20:21:38;7.83;;;7.00;;
13455;SDS011;6800;50.940;6.940;2024-01-07T20:25:42;5.37;;;5.03;;
13455;SDS011;6800;50.940;6.940;2024-01-07T20:29:44;6.70;;;6.10;;
13455;SDS011;6800;50.940;6.940;2024-01-07T20:33:46;6.27;;;5.73;;
13455;SDS011;6800;50.940;6.940;2024-01-07T20:37:48;5.90;;;5.50;;
13455;SDS011;6800;50.940;6.940;2024-01-07T20:41:53;6.80;;;6.03;;
13455;SDS011;6800;50.940;6.940;2024-01-07T20:45:56;5.17;;;4.87;;
13455;SDS011;6800;50.940;6.940;2024-01-07T20:49:59;4.30;;;4.10;;
13455;SDS011;6800;50.940;6.940;2024-01-07T20:54:01;6.77;;;5.30;;
13455;SDS011;6800;50.940;6.940;2024-01-07T20:58:04;5.50;;;5.20;;
13455;SDS011;6800;50.940;6.940;2024-01-07T21:02:08;7.10;;;6.50;;
13455;SDS011;6800;50.940;6.940;2024-01-07T21:06:10;6.30;;;5.90;;
13455;SDS011;6800;50.940;6.940;2024-01-07T21:10:12;6.17;;;5.67;;
13455;SDS011;6800;50.940;6.940;2024-01-07T21:14:14;6.97;;;6.47;;
13455;SDS011;6800;50.940;6.940;2024-01-07T21:18:17;6.50;;;6.10;;
13455;SDS011;6800;50.940;6.940;2024-01-07T21:22:19;6.83;;;6.30;;
13455;SDS011;6800;50.940;6.940;2024-01-07T21:26:21;6.63;;;6.03;;
13455;SDS011;6800;50.940;6.940;2024-01-07T21:30:23;6.20;;;5.67;;
13455;SDS011;6800;50.940;6.940;2024-01-07T21:34:25;7.77;;;6.13;;
13455;SDS011;6800;50.940;6.940;2024-01-07T21:38:27;6.53;;;6.00;;
13455;SDS011;6800;50.940;6.940;2024-01-07T21:42:29;5.90;;;5.40;;
13455;SDS011;6800;50.940;6.940;2024-01-07T21:46:31;6.03;;;5.63;;
13455;SDS011;6800;50.940;6.940;2024-01-07T21:50:36;6.43;;;6.03;;
13455;SDS011;6800;50.940;6.940;2024-01-07T21:54:41;5.80;;;5.30;;
13455;SDS011;6800;50.940;6.940;2024-01-07T21:58:43;6.37;;;5.80;;
13455;SDS011;6800;50.940;6.940;2024-01-07T22:02:45;5.53;;;5.13;;
13455;SDS011;6800;50.940;6.940;2024-01-07T22:06:47;5.67;;;5.17;;
13455;SDS011;6800;50.940;6.940;2024-01-07T22:10:53;6.27;;;5.87;;
13455;SDS011;6800;50.940;6.940;2024-01-07T22:14:54;5.60;;;5.27;;
13455;SDS011;6800;50.940;6.940;2024-01-07T22:18:56;5.50;;;5.17;;
13455;SDS011;6800;50.940;6.940;2024-01-07T22:23:00;5.20;;;4.80;;
13455;SDS011;6800;50.940;6.940;2024-01-07T22:27:02;4.90;;;4.60;;
13455;SDS011;6800;50.940;6.940;2024-01-07T22:31:04;5.73;;;5.33;;
13455;SDS011;6800;50.940;6.940;2024-01-07T22:35:08;5.37;;;4.93;;
13455;SDS011;6800;50.940;6.940;2024-01-07T22:39:12;5.20;;;4.67;;
13455;SDS011;6800;50.940;6.940;2024-01-07T22:43:14;5.70;;;5.20;;
13455;SDS011;6800;50.940;6.940;2024-01-07T22:47:18;6.70;;;6.30;;
13455;SDS011;6800;50.940;6.940;2024-01-07T22:51:20;6.17;;;5.67;;
13455;SDS011;6800;50.940;6.940;2024-01-07T22:55:22;5.17;;;4.87;;
13455;SDS011;6800;50.940;6.940;2024-01-07T22:59:24;5.73;;;5.33;;
13455;SDS011;6800;50.940;6.940;2024-01-07T23:03:27;5.77;;;5.37;;
13455;SDS011;6800;50.940;6.940;2024-01-07T23:07:28;5.77;;;5.37;;
13455;SDS011;6800;50.940;6.940;2024-01-07T23:11:42;6.23;;;5.63;;
13455;SDS011;6800;50.940;6.940;2024-01-07T23:15:45;5.27;;;4.87;;
13455;SDS011;6800;50.940;6.940;2024-01-07T23:19:47;5.97;;;5.53;;
13455;SDS011;6800;50.940;6.940;2024-01-07T23:23:48;5.97;;;5.33;;
13455;SDS011;6800;50.940;6.940;2024-01-07T23:27:50;6.30;;;5.90;;
13455;SDS011;6800;50.940;6.940;2024-01-07T23:31:54;8.77;;;8.17;;
13455;SDS011;6800;50.940;6.940;2024-01-07T23:35:55;8.63;;;8.03;;
13455;SDS011;6800;50.940;6.940;2024-01-07T23:40:02;10.20;;;9.40;;
13455;SDS011;6800;50.940;6.940;2024-01-07T23:44:05;9.50;;;8.70;;
13455;SDS011;6800;50.940;6.940;2024-01-07T23:48:07;10.00;;;9.23;;
13455;SDS011;6800;50.940;6.940;2024-01-07T23:52:09;9.10;;;8.50;;
13455;SDS011;6800;50.940;6.940;2024-01-07T23:56:12;10.13;;;9.43;;
